Hovedside
METAR-TAF:

METAR-TAF

Lufthavner :

Tammerfors-Birkala lufthavn

Tammerfors, Finland

breddegrad: 61-25N, lengdegrad: 023-35E, høyde over havet: 112 m

Gjeldene værobservasjon

Denne rapporten ble laget for 19 minutter siden, klokken 14:20 UTC
Vind 9 kt fra Øst-nordøst med vindkast opp mot 19 kt, skiftende mellom Nord-nordøst og Øst
Temperatur 30°C
Luftfuktighet 29%
Trykk 1014 hPa
Sikt 10 km eller mer
ingen skyer under 1500 m og ingen bygeskyer

METAR: EFTP 181420Z AUTO 07009G19KT 020V100 CAVOK 30/10 Q1014

Tid: 17:39 (14:39 UTC)

Varsel

Denne rapporten ble laget for 3 timer og 9 minutter siden, klokken 11:30 UTC
Varsel gyldig fra 18. klokken 12 UTC til 19. klokken 12 UTC
Vind 9 kt fra Øst
Sikt 10 km eller mer
ingen skyer under 1500 m og ingen bygeskyer

TAF: EFTP 181130Z 1812/1912 08009KT CAVOK

Værobservasjoner og værvarsel for over 4000 flyplasser (METAR- og TAF-rapporter).

Tilgjengelige stasjoner er representert av de røde og gule prikkene på kartet.

Hold musepekeren over prikken for å se navnet på stasjonen.

Klikk så for å se værobservasjoner og -varsler.

For å forandre kartet kan du klikke på den grønne knappen med svart kryss for å zoome inn, på den grønne knappen med strek for å zoome ut, eller på de grønne pilene for å se tilstøtende kart.


METAR-TAF: